createdAt,value
2023-05-24T00:00:40.320Z,5.71
2023-05-24T00:01:40.174Z,5.71
2023-05-24T00:02:40.251Z,5.68
2023-05-24T00:03:40.201Z,5.65
2023-05-24T00:04:40.185Z,5.61
2023-05-24T00:05:40.087Z,5.60
2023-05-24T00:06:40.115Z,5.60
2023-05-24T00:07:40.067Z,5.54
2023-05-24T00:08:40.121Z,5.49
2023-05-24T00:09:40.049Z,5.49
2023-05-24T00:10:40.194Z,5.46
2023-05-24T00:11:40.007Z,5.43
2023-05-24T00:12:40.043Z,5.40
2023-05-24T00:13:39.993Z,5.40
2023-05-24T00:14:40.030Z,5.39
2023-05-24T00:15:40.037Z,5.39
2023-05-24T00:16:40.059Z,5.40
2023-05-24T00:17:40.030Z,5.39
2023-05-24T00:18:39.972Z,5.39
2023-05-24T00:19:40.038Z,5.38
2023-05-24T00:20:40.116Z,5.38
2023-05-24T00:21:39.915Z,5.36
2023-05-24T00:22:39.915Z,5.33
2023-05-24T00:23:39.915Z,5.35
2023-05-24T00:24:39.912Z,5.31
2023-05-24T00:25:39.854Z,5.31
2023-05-24T00:26:39.966Z,5.31
2023-05-24T00:27:39.837Z,5.30
2023-05-24T00:28:39.904Z,5.28
2023-05-24T00:29:39.834Z,5.27
2023-05-24T00:30:40.049Z,5.27
2023-05-24T00:31:40.052Z,5.22
2023-05-24T00:32:39.870Z,5.17
2023-05-24T00:33:40.222Z,5.15
2023-05-24T00:34:39.798Z,5.12
2023-05-24T00:35:39.771Z,5.10
2023-05-24T00:36:39.792Z,5.07
2023-05-24T00:37:39.717Z,5.06
2023-05-24T00:38:39.752Z,5.06
2023-05-24T00:39:39.734Z,5.06
2023-05-24T00:40:39.771Z,5.03
2023-05-24T00:41:39.716Z,4.99
2023-05-24T00:42:39.719Z,4.97
2023-05-24T00:43:39.688Z,4.97
2023-05-24T00:44:39.689Z,4.94
2023-05-24T00:45:39.649Z,4.92
2023-05-24T00:46:39.753Z,4.89
2023-05-24T00:47:39.696Z,4.88
2023-05-24T00:48:39.645Z,4.85
2023-05-24T00:49:39.676Z,4.85
2023-05-24T00:50:39.661Z,4.84
2023-05-24T00:51:39.768Z,4.80
2023-05-24T00:52:39.648Z,4.78
2023-05-24T00:53:39.560Z,4.73
2023-05-24T00:54:39.566Z,4.75
2023-05-24T00:55:39.557Z,4.73
2023-05-24T00:56:39.576Z,4.72
2023-05-24T00:57:39.537Z,4.69
2023-05-24T00:58:39.516Z,4.66
2023-05-24T00:59:39.483Z,4.63
2023-05-24T01:00:39.647Z,4.63
2023-05-24T01:01:39.519Z,4.62
2023-05-24T01:02:39.583Z,4.62
2023-05-24T01:03:39.693Z,4.60
2023-05-24T01:04:39.454Z,4.59
2023-05-24T01:05:39.445Z,4.58
2023-05-24T01:06:39.483Z,4.55
2023-05-24T01:07:39.416Z,4.52
2023-05-24T01:08:39.442Z,4.52
2023-05-24T01:09:39.372Z,4.52
2023-05-24T01:10:39.469Z,4.51
2023-05-24T01:11:39.354Z,4.50
2023-05-24T01:12:39.750Z,4.48
2023-05-24T01:13:39.359Z,4.50
2023-05-24T01:14:39.377Z,4.50
2023-05-24T01:15:39.366Z,4.45
2023-05-24T01:16:39.393Z,4.45
2023-05-24T01:17:39.326Z,4.42
2023-05-24T01:18:39.311Z,4.41
2023-05-24T01:19:39.312Z,4.37
2023-05-24T01:20:39.351Z,4.37
2023-05-24T01:21:39.245Z,4.34
2023-05-24T01:22:39.280Z,4.30
2023-05-24T01:23:39.248Z,4.30
2023-05-24T01:24:39.273Z,4.29
2023-05-24T01:25:39.247Z,4.32
2023-05-24T01:26:39.222Z,4.33
2023-05-24T01:27:39.176Z,4.33
2023-05-24T01:28:39.229Z,4.32
2023-05-24T01:29:39.190Z,4.29
2023-05-24T01:30:39.241Z,4.27
2023-05-24T01:31:39.189Z,4.24
2023-05-24T01:32:39.605Z,4.23
2023-05-24T01:33:39.119Z,4.22
2023-05-24T01:34:39.124Z,4.18
2023-05-24T01:35:39.228Z,4.16
2023-05-24T01:36:39.123Z,4.14
2023-05-24T01:37:39.081Z,4.14
2023-05-24T01:38:39.142Z,4.14
2023-05-24T01:39:39.085Z,4.12
2023-05-24T01:40:39.101Z,4.12
2023-05-24T01:41:39.076Z,4.11
2023-05-24T01:42:39.071Z,4.08
2023-05-24T01:43:39.018Z,4.06
2023-05-24T01:44:39.017Z,4.05
2023-05-24T01:45:38.995Z,4.05
2023-05-24T01:46:39.139Z,4.06
2023-05-24T01:47:38.965Z,4.04
2023-05-24T01:48:39.000Z,4.04
2023-05-24T01:49:38.928Z,4.02
2023-05-24T01:50:38.932Z,4.00
2023-05-24T01:51:38.983Z,4.02
2023-05-24T01:52:39.536Z,4.00
2023-05-24T01:53:39.152Z,3.94
2023-05-24T01:54:38.933Z,3.91
2023-05-24T01:55:38.901Z,3.91
2023-05-24T01:56:38.891Z,3.88
2023-05-24T01:57:38.839Z,3.88
2023-05-24T01:58:38.857Z,3.86
2023-05-24T01:59:38.938Z,3.84
2023-05-24T02:00:38.916Z,3.83
2023-05-24T02:01:38.922Z,3.83
2023-05-24T02:02:38.895Z,3.76
2023-05-24T02:03:38.823Z,3.79
2023-05-24T02:04:38.800Z,3.76
2023-05-24T02:05:38.826Z,3.73
2023-05-24T02:06:38.769Z,3.75
2023-05-24T02:07:38.781Z,3.75
2023-05-24T02:08:38.913Z,3.75
2023-05-24T02:09:38.727Z,3.73
2023-05-24T02:10:38.733Z,3.73
2023-05-24T02:11:38.685Z,3.73
2023-05-24T02:12:38.966Z,3.73
2023-05-24T02:13:38.730Z,3.75
2023-05-24T02:14:39.383Z,3.75
2023-05-24T02:15:38.637Z,3.72
2023-05-24T02:16:38.720Z,3.70
2023-05-24T02:17:38.729Z,3.65
2023-05-24T02:18:38.635Z,3.65
2023-05-24T02:19:38.758Z,3.65
2023-05-24T02:20:38.690Z,3.65
2023-05-24T02:21:38.586Z,3.62
2023-05-24T02:22:38.589Z,3.62
2023-05-24T02:23:38.727Z,3.62
2023-05-24T02:24:38.622Z,3.62
2023-05-24T02:25:38.551Z,3.65
2023-05-24T02:26:38.543Z,3.62
2023-05-24T02:27:38.525Z,3.65
2023-05-24T02:28:38.531Z,3.61
2023-05-24T02:29:38.479Z,3.58
2023-05-24T02:30:38.548Z,3.58
2023-05-24T02:31:38.655Z,3.57
2023-05-24T02:32:38.505Z,3.55
2023-05-24T02:33:38.449Z,3.52
2023-05-24T02:34:39.112Z,3.50
2023-05-24T02:35:38.481Z,3.48
2023-05-24T02:36:38.499Z,3.47
2023-05-24T02:37:38.408Z,3.45
2023-05-24T02:38:38.420Z,3.42
2023-05-24T02:39:38.427Z,3.39
2023-05-24T02:40:38.446Z,3.42
2023-05-24T02:41:38.445Z,3.40
2023-05-24T02:42:38.396Z,3.42
2023-05-24T02:43:38.344Z,3.39
2023-05-24T02:44:38.367Z,3.40
2023-05-24T02:45:38.341Z,3.40
2023-05-24T02:46:45.490Z,3.40
2023-05-24T02:47:39.024Z,3.36
2023-05-24T02:48:40.078Z,3.36
2023-05-24T02:49:38.276Z,3.36
2023-05-24T02:50:38.330Z,3.39
2023-05-24T02:51:38.258Z,3.39
2023-05-24T02:52:38.308Z,3.39
2023-05-24T02:53:38.261Z,3.36
2023-05-24T02:54:38.313Z,3.35
2023-05-24T02:55:38.220Z,3.35
2023-05-24T02:56:38.244Z,3.33
2023-05-24T02:57:38.241Z,3.32
2023-05-24T02:58:38.208Z,3.32
2023-05-24T02:59:38.168Z,3.29
2023-05-24T03:00:38.197Z,3.24
2023-05-24T03:01:38.154Z,3.21
2023-05-24T03:02:38.502Z,3.18
2023-05-24T03:03:38.279Z,3.18
2023-05-24T03:04:38.201Z,3.18
2023-05-24T03:05:38.139Z,3.18
2023-05-24T03:06:38.114Z,3.18
2023-05-24T03:07:38.149Z,3.15
2023-05-24T03:08:38.138Z,3.15
2023-05-24T03:09:38.139Z,3.15
2023-05-24T03:10:38.040Z,3.14
2023-05-24T03:11:38.059Z,3.13
2023-05-24T03:12:38.042Z,3.11
2023-05-24T03:13:38.008Z,3.10
2023-05-24T03:14:38.206Z,3.10
2023-05-24T03:15:38.079Z,3.10
2023-05-24T03:16:38.053Z,3.10
2023-05-24T03:17:38.044Z,3.10
2023-05-24T03:18:37.950Z,3.13
2023-05-24T03:19:37.988Z,3.17
2023-05-24T03:20:38.142Z,3.20
2023-05-24T03:21:37.953Z,3.23
2023-05-24T03:22:37.918Z,3.31
2023-05-24T03:23:37.912Z,3.35
2023-05-24T03:24:37.883Z,3.40
2023-05-24T03:25:37.912Z,3.47
2023-05-24T03:26:37.887Z,3.54
2023-05-24T03:27:37.851Z,3.60
2023-05-24T03:28:37.865Z,3.66
2023-05-24T03:29:37.842Z,3.73
2023-05-24T03:30:37.860Z,3.78
2023-05-24T03:31:37.880Z,3.84
2023-05-24T03:32:37.796Z,3.91
2023-05-24T03:33:37.799Z,4.00
2023-05-24T03:34:37.844Z,4.05
2023-05-24T03:35:37.773Z,4.11
2023-05-24T03:36:37.801Z,4.16
2023-05-24T03:37:37.773Z,4.24
2023-05-24T03:38:37.735Z,4.30
2023-05-24T03:39:37.727Z,4.36
2023-05-24T03:40:37.761Z,4.41
2023-05-24T03:41:37.750Z,4.42
2023-05-24T03:42:37.699Z,4.45
2023-05-24T03:43:37.769Z,4.48
2023-05-24T03:44:37.661Z,4.50
2023-05-24T03:45:40.104Z,4.52
2023-05-24T03:46:37.733Z,4.58
2023-05-24T03:47:37.699Z,4.60
2023-05-24T03:48:37.601Z,4.62
2023-05-24T03:49:37.628Z,4.63
2023-05-24T03:50:37.609Z,4.66
2023-05-24T03:51:37.641Z,4.63
2023-05-24T03:52:37.587Z,4.66
2023-05-24T03:53:37.622Z,4.67
2023-05-24T03:54:37.557Z,4.69
2023-05-24T03:55:37.791Z,4.73
2023-05-24T03:56:37.561Z,4.77
2023-05-24T03:57:37.545Z,4.78
2023-05-24T03:58:37.498Z,4.84
2023-05-24T03:59:39.794Z,4.89
2023-05-24T04:00:37.493Z,4.94
2023-05-24T04:01:37.525Z,5.00
2023-05-24T04:02:37.509Z,5.04
2023-05-24T04:03:37.550Z,5.10
2023-05-24T04:04:37.465Z,5.17
2023-05-24T04:05:37.542Z,5.21
2023-05-24T04:06:37.447Z,5.24
2023-05-24T04:07:37.540Z,5.27
2023-05-24T04:08:37.427Z,5.35
2023-05-24T04:09:37.411Z,5.38
2023-05-24T04:10:37.512Z,5.42
2023-05-24T04:11:37.387Z,5.48
2023-05-24T04:12:37.404Z,5.51
2023-05-24T04:13:37.352Z,5.57
2023-05-24T04:14:37.361Z,5.60
2023-05-24T04:15:37.868Z,5.63
2023-05-24T04:16:37.656Z,5.65
2023-05-24T04:17:38.018Z,5.72
2023-05-24T04:18:37.359Z,5.75
2023-05-24T04:19:37.275Z,5.75
2023-05-24T04:20:37.434Z,5.78
2023-05-24T04:21:37.274Z,5.79
2023-05-24T04:22:37.205Z,5.79
2023-05-24T04:23:37.250Z,5.82
2023-05-24T04:24:37.486Z,5.83
2023-05-24T09:52:50.745Z,17.22
2023-05-24T09:53:50.685Z,17.21
2023-05-24T09:54:50.689Z,17.28
2023-05-24T09:55:50.711Z,17.37
2023-05-24T09:56:50.680Z,17.41
2023-05-24T09:57:50.680Z,17.41
2023-05-24T09:58:50.702Z,17.41
2023-05-24T09:59:50.627Z,17.43
2023-05-24T10:00:50.713Z,17.37
2023-05-24T10:01:50.700Z,17.38
2023-05-24T10:02:53.088Z,17.40
2023-05-24T10:03:50.669Z,17.41
2023-05-24T10:04:50.629Z,17.48
2023-05-24T10:05:50.561Z,17.51
2023-05-24T10:06:50.594Z,17.19
2023-05-24T10:07:50.525Z,17.00
2023-05-24T10:08:50.598Z,16.79
2023-05-24T10:09:50.520Z,16.73
2023-05-24T10:10:50.518Z,16.70
2023-05-24T10:11:50.546Z,16.71
2023-05-24T10:12:50.511Z,16.73
2023-05-24T10:13:50.471Z,16.78
2023-05-24T10:14:50.515Z,16.82
2023-05-24T10:15:50.507Z,16.86
2023-05-24T10:16:50.523Z,16.88
2023-05-24T10:17:50.509Z,16.86
2023-05-24T10:18:50.530Z,16.85
2023-05-24T10:19:50.460Z,16.89
2023-05-24T10:20:50.918Z,16.97
2023-05-24T10:21:50.545Z,16.96
2023-05-24T10:22:50.410Z,16.94
2023-05-24T10:23:50.418Z,16.97
2023-05-24T10:25:00.337Z,17.01
2023-05-24T10:25:50.322Z,17.11
2023-05-24T10:26:55.950Z,17.14
2023-05-24T10:27:50.289Z,17.23
2023-05-24T10:28:50.307Z,17.30
2023-05-24T10:29:50.277Z,17.38
2023-05-24T10:30:50.469Z,17.51
2023-05-24T10:31:50.265Z,17.63
2023-05-24T10:32:50.442Z,17.81
2023-05-24T10:33:50.225Z,17.96
2023-05-24T10:34:50.251Z,17.89
2023-05-24T10:35:50.218Z,17.68
2023-05-24T10:36:50.264Z,17.44
2023-05-24T10:37:50.208Z,17.41
2023-05-24T10:38:50.209Z,17.44
2023-05-24T10:39:50.175Z,17.44
2023-05-24T10:40:50.287Z,17.49
2023-05-24T10:41:50.452Z,17.58
2023-05-24T10:42:50.337Z,17.58
2023-05-24T10:44:07.331Z,17.43
2023-05-24T10:44:51.125Z,17.19
2023-05-24T10:45:50.179Z,17.22
2023-05-24T10:46:50.175Z,17.21
2023-05-24T10:47:50.168Z,17.26
2023-05-24T10:48:50.079Z,17.23
2023-05-24T10:49:50.089Z,17.33
2023-05-24T10:50:50.067Z,17.37
2023-05-24T10:51:50.080Z,17.37
2023-05-24T10:52:50.048Z,17.41
2023-05-24T10:53:50.054Z,17.41
2023-05-24T10:55:50.997Z,17.48
2023-05-24T10:56:50.321Z,17.55
2023-05-24T10:57:49.944Z,17.63
2023-05-24T10:58:50.015Z,17.71
2023-05-24T10:59:49.960Z,17.72
2023-05-24T11:00:50.163Z,17.78
2023-05-24T11:01:50.049Z,17.84
2023-05-24T11:02:49.967Z,17.90
2023-05-24T11:03:49.889Z,18.03
2023-05-24T11:04:49.891Z,18.08
2023-05-24T11:05:50.034Z,18.11
2023-05-24T11:06:49.882Z,18.15
2023-05-24T11:07:49.850Z,18.23
2023-05-24T11:08:49.892Z,18.41
2023-05-24T11:09:49.822Z,18.70
2023-05-24T11:10:49.842Z,18.92
2023-05-24T11:11:49.868Z,18.98
2023-05-24T11:12:49.794Z,18.85
2023-05-24T11:13:49.770Z,18.72
2023-05-24T11:14:49.848Z,18.57
2023-05-24T11:15:49.854Z,18.39
2023-05-24T11:16:49.780Z,18.30
2023-05-24T11:17:49.790Z,18.17
2023-05-24T11:18:49.776Z,18.14
2023-05-24T11:19:49.729Z,18.07
2023-05-24T11:20:49.802Z,18.02
2023-05-24T11:21:49.687Z,18.02
2023-05-24T11:22:49.778Z,18.07
2023-05-24T11:23:49.671Z,18.07
2023-05-24T11:24:49.690Z,18.08
2023-05-24T11:25:49.709Z,18.08
2023-05-24T11:26:49.660Z,18.08
2023-05-24T11:27:49.681Z,18.02
2023-05-24T11:28:49.685Z,17.95
2023-05-24T11:29:49.609Z,17.82
2023-05-24T11:30:49.622Z,17.77
2023-05-24T11:31:49.753Z,17.72
2023-05-24T11:32:49.628Z,17.58
2023-05-24T11:33:49.543Z,17.49
2023-05-24T11:34:49.582Z,17.48
2023-05-24T11:35:49.581Z,17.41
2023-05-24T11:36:49.536Z,17.37
2023-05-24T11:37:49.512Z,17.38
2023-05-24T11:38:49.614Z,17.43
2023-05-24T11:39:49.482Z,17.46
2023-05-24T11:40:49.496Z,17.54
2023-05-24T11:41:49.526Z,17.62
2023-05-24T11:42:50.044Z,17.46
2023-05-24T11:43:49.442Z,17.56
2023-05-24T11:44:49.449Z,17.63
2023-05-24T11:45:49.475Z,17.81
2023-05-24T11:46:49.434Z,17.99
2023-05-24T11:47:49.440Z,18.17
2023-05-24T11:48:49.450Z,18.30
2023-05-24T11:49:49.404Z,18.35
2023-05-24T11:50:50.442Z,18.47
2023-05-24T11:51:49.390Z,18.33
2023-05-24T11:52:49.367Z,18.21
2023-05-24T11:53:49.976Z,18.05
2023-05-24T11:54:49.333Z,17.87
2023-05-24T11:55:49.363Z,17.77
2023-05-24T11:56:49.301Z,17.58
2023-05-24T11:57:49.367Z,17.37
2023-05-24T11:58:49.298Z,17.19
2023-05-24T11:59:49.301Z,17.04
2023-05-24T12:00:49.266Z,16.96
2023-05-24T12:01:49.231Z,16.89
2023-05-24T12:02:49.413Z,16.85
2023-05-24T12:03:49.497Z,16.79
2023-05-24T12:04:49.322Z,16.73
2023-05-24T12:05:49.288Z,16.67
2023-05-24T12:06:49.212Z,16.57
2023-05-24T12:07:49.173Z,16.49
2023-05-24T12:08:49.282Z,16.39
2023-05-24T12:09:49.135Z,16.33
2023-05-24T12:10:49.143Z,16.30
2023-05-24T12:11:49.110Z,16.21
2023-05-24T12:12:49.145Z,16.11
2023-05-24T12:13:49.147Z,16.07
2023-05-24T12:14:49.094Z,16.05
2023-05-24T12:15:49.182Z,16.04
2023-05-24T12:16:49.118Z,16.04
2023-05-24T12:17:49.074Z,16.04
2023-05-24T12:19:02.303Z,16.11
2023-05-24T12:19:50.067Z,16.20
2023-05-24T12:20:49.122Z,16.27
2023-05-24T12:21:49.004Z,16.42
2023-05-24T12:22:49.069Z,16.58
2023-05-24T12:23:48.992Z,16.68
2023-05-24T12:24:49.092Z,16.70
2023-05-24T12:25:49.035Z,16.75
2023-05-24T12:26:48.966Z,16.86
2023-05-24T12:27:48.930Z,16.91
2023-05-24T12:28:48.962Z,16.96
2023-05-24T12:29:48.952Z,16.91
2023-05-24T12:30:48.926Z,16.89
2023-05-24T12:31:48.935Z,16.83
2023-05-24T12:32:49.018Z,16.81
2023-05-24T12:33:48.861Z,16.75
2023-05-24T12:34:48.899Z,16.61
2023-05-24T12:35:48.875Z,16.57
2023-05-24T12:36:48.845Z,16.52
2023-05-24T12:37:48.828Z,16.39
2023-05-24T12:38:48.852Z,16.28
2023-05-24T12:39:48.802Z,16.25
2023-05-24T12:41:00.118Z,16.21
2023-05-24T12:41:49.801Z,16.12
2023-05-24T12:42:48.842Z,15.90
2023-05-24T12:43:48.762Z,15.71
2023-05-24T12:44:48.769Z,15.64
2023-05-24T12:45:48.756Z,15.56
2023-05-24T12:46:48.765Z,15.51
2023-05-24T12:47:48.782Z,15.51
2023-05-24T12:48:48.713Z,15.51
2023-05-24T12:49:48.755Z,15.49
2023-05-24T12:50:48.719Z,15.46
2023-05-24T12:51:49.542Z,15.44
2023-05-24T12:52:48.777Z,15.44
2023-05-24T12:53:48.671Z,15.36
2023-05-24T12:54:48.668Z,15.34
2023-05-24T12:55:48.740Z,15.28
2023-05-24T12:56:48.762Z,15.28
2023-05-24T12:57:48.593Z,15.27
2023-05-24T12:58:48.705Z,15.28
2023-05-24T12:59:48.596Z,15.28
2023-05-24T13:00:48.648Z,15.31
2023-05-24T13:01:48.565Z,15.41
2023-05-24T13:02:48.649Z,15.46
2023-05-24T13:03:48.525Z,15.53
2023-05-24T13:04:48.603Z,15.57
2023-05-24T13:05:48.649Z,15.67
2023-05-24T13:06:48.702Z,15.72
2023-05-24T13:07:48.481Z,15.78
2023-05-24T13:08:48.517Z,15.89
2023-05-24T13:09:48.474Z,16.02
2023-05-24T13:10:48.622Z,16.17
2023-05-24T13:11:48.490Z,16.33
2023-05-24T13:12:48.464Z,16.48
2023-05-24T13:13:48.421Z,16.63
2023-05-24T13:14:50.089Z,16.79
2023-05-24T13:15:48.404Z,16.82
2023-05-24T13:16:48.548Z,16.85
2023-05-24T13:17:48.469Z,16.89
2023-05-24T13:18:48.395Z,16.97
2023-05-24T13:19:48.349Z,17.03
2023-05-24T13:20:48.521Z,17.07
2023-05-24T13:21:48.344Z,17.18
2023-05-24T13:22:48.470Z,17.34
2023-05-24T13:23:48.317Z,17.49
2023-05-24T13:24:48.311Z,17.62
2023-05-24T13:25:48.339Z,17.64
2023-05-24T13:26:48.286Z,17.66
2023-05-24T13:27:48.290Z,17.63
2023-05-24T13:29:15.102Z,17.54
2023-05-24T13:30:00.279Z,17.40
2023-05-24T13:30:49.300Z,17.23
2023-05-24T13:31:48.244Z,16.97
2023-05-24T13:32:48.286Z,16.98
2023-05-24T13:33:48.189Z,17.06
2023-05-24T13:34:48.210Z,17.12
2023-05-24T13:35:48.230Z,17.18
2023-05-24T13:36:48.178Z,17.23
2023-05-24T13:37:48.156Z,17.30
2023-05-24T13:38:52.289Z,17.38
2023-05-24T13:39:49.130Z,17.48
2023-05-24T13:40:48.140Z,17.62
2023-05-24T13:41:48.122Z,17.71
2023-05-24T13:42:48.123Z,17.84
2023-05-24T13:43:48.104Z,17.90
2023-05-24T13:44:48.104Z,17.84
2023-05-24T13:45:48.077Z,17.87
2023-05-24T13:46:48.125Z,17.92
2023-05-24T13:47:48.067Z,18.00
2023-05-24T13:48:48.034Z,18.03
2023-05-24T13:49:48.023Z,18.07
2023-05-24T13:50:48.032Z,18.15
2023-05-24T13:51:47.983Z,18.23
2023-05-24T13:52:48.029Z,18.35
2023-05-24T13:53:48.088Z,18.35
2023-05-24T13:54:47.982Z,18.42
2023-05-24T13:55:47.994Z,18.57
2023-05-24T13:56:47.949Z,18.69
2023-05-24T13:57:52.073Z,18.73
2023-05-24T13:58:47.978Z,18.84
2023-05-24T13:59:47.899Z,18.94
2023-05-24T14:00:47.931Z,19.06
2023-05-24T14:01:47.934Z,19.13
2023-05-24T14:02:47.914Z,19.06
2023-05-24T14:03:47.960Z,18.70
2023-05-24T14:04:47.875Z,18.65
2023-05-24T14:05:48.059Z,18.67
2023-05-24T14:06:49.844Z,18.72
2023-05-24T14:07:47.848Z,18.80
2023-05-24T14:08:47.788Z,18.52
2023-05-24T14:09:47.825Z,18.57
2023-05-24T14:10:47.820Z,18.63
2023-05-24T14:11:47.780Z,18.70
2023-05-24T14:12:56.063Z,18.78
2023-05-24T14:15:48.078Z,18.90
2023-05-24T14:16:47.758Z,18.98
2023-05-24T14:17:47.815Z,19.06
2023-05-24T14:18:47.735Z,18.84
2023-05-24T14:19:47.695Z,18.76
2023-05-24T14:20:47.670Z,18.70
2023-05-24T14:21:47.660Z,18.67
2023-05-24T14:22:47.691Z,18.55
2023-05-24T14:23:47.670Z,18.42
2023-05-24T14:24:47.633Z,18.36
2023-05-24T14:25:47.636Z,18.33
2023-05-24T14:26:47.803Z,18.36
2023-05-24T14:27:47.599Z,18.37
2023-05-24T14:28:47.560Z,18.44
2023-05-24T14:29:47.613Z,18.51
2023-05-24T14:30:47.553Z,18.51
2023-05-24T14:31:47.599Z,18.50
2023-05-24T14:32:47.804Z,18.42
2023-05-24T14:33:47.540Z,18.44
2023-05-24T14:34:47.524Z,18.51
2023-05-24T14:35:47.508Z,18.50
2023-05-24T14:36:47.529Z,18.54
2023-05-24T14:37:47.657Z,18.57
2023-05-24T14:38:47.473Z,18.57
2023-05-24T14:39:47.490Z,18.52
2023-05-24T14:40:47.844Z,18.52
2023-05-24T14:41:47.620Z,18.50
2023-05-24T14:42:47.438Z,18.48
2023-05-24T14:43:47.438Z,18.55
2023-05-24T14:44:47.428Z,18.65
2023-05-24T14:45:47.656Z,18.67
2023-05-24T14:46:47.377Z,18.67
2023-05-24T14:47:47.649Z,18.69
2023-05-24T14:48:47.356Z,18.70
2023-05-24T14:49:47.356Z,18.60
2023-05-24T14:50:47.309Z,18.41
2023-05-24T14:51:47.310Z,18.35
2023-05-24T14:52:47.294Z,18.23
2023-05-24T14:53:47.375Z,18.20
2023-05-24T14:54:47.268Z,18.15
2023-05-24T14:55:47.534Z,18.07
2023-05-24T14:56:47.323Z,18.02
2023-05-24T14:57:47.257Z,17.99
2023-05-24T14:58:47.222Z,17.93
2023-05-24T14:59:47.233Z,17.68
2023-05-24T15:00:47.415Z,17.56
2023-05-24T15:01:47.264Z,17.51
2023-05-24T15:02:47.240Z,17.48
2023-05-24T15:03:47.361Z,17.48
2023-05-24T15:04:47.159Z,17.52
2023-05-24T15:05:47.280Z,17.55
2023-05-24T15:06:47.190Z,17.59
2023-05-24T15:07:47.153Z,17.55
2023-05-24T15:08:47.295Z,17.58
2023-05-24T15:09:47.149Z,17.62
2023-05-24T15:10:47.099Z,17.63
2023-05-24T15:11:47.107Z,17.63
2023-05-24T15:12:47.087Z,17.63
2023-05-24T15:13:47.179Z,17.62
2023-05-24T15:14:47.044Z,17.59
2023-05-24T15:15:47.066Z,17.58
2023-05-24T15:16:47.081Z,17.56
2023-05-24T15:17:47.092Z,17.55
2023-05-24T15:18:47.061Z,17.49
2023-05-24T15:19:47.077Z,17.48
2023-05-24T15:20:47.347Z,17.44
2023-05-24T15:21:46.992Z,17.46
2023-05-24T15:22:46.944Z,17.44
2023-05-24T15:23:46.957Z,17.33
2023-05-24T15:24:46.928Z,17.25
2023-05-24T15:25:47.016Z,17.15
2023-05-24T15:26:46.915Z,17.15
2023-05-24T15:27:46.978Z,17.11
2023-05-24T15:28:47.097Z,17.06
2023-05-24T15:29:46.897Z,16.98
2023-05-24T15:30:46.874Z,16.98
2023-05-24T15:31:46.936Z,16.94
2023-05-24T15:32:46.940Z,16.91
2023-05-24T15:33:46.841Z,16.89
2023-05-24T15:34:46.866Z,16.83
2023-05-24T15:35:46.843Z,16.78
2023-05-24T15:36:46.792Z,16.66
2023-05-24T15:37:46.817Z,16.60
2023-05-24T15:38:46.839Z,16.57
2023-05-24T15:39:46.776Z,16.50
2023-05-24T15:40:46.762Z,16.46
2023-05-24T15:41:46.765Z,16.41
2023-05-24T15:42:46.754Z,16.35
2023-05-24T15:43:46.731Z,16.31
2023-05-24T15:44:47.002Z,16.27
2023-05-24T15:45:46.712Z,16.14
2023-05-24T15:46:46.799Z,16.07
2023-05-24T15:47:46.764Z,15.94
2023-05-24T15:48:47.136Z,15.87
2023-05-24T15:49:46.664Z,15.80
2023-05-24T15:52:03.469Z,15.68
2023-05-24T15:52:47.619Z,15.62
2023-05-24T15:53:46.656Z,15.60
2023-05-24T15:54:46.583Z,15.53
2023-05-24T15:55:46.673Z,15.47
2023-05-24T15:56:46.572Z,15.38
2023-05-24T15:57:46.586Z,15.25
2023-05-24T15:58:46.634Z,15.17
2023-05-24T15:59:46.551Z,15.11
2023-05-24T16:00:46.506Z,15.09
2023-05-24T16:01:46.599Z,15.07
2023-05-24T16:02:46.574Z,15.02
2023-05-24T16:03:46.621Z,15.01
2023-05-24T16:04:46.544Z,14.94
2023-05-24T16:05:46.475Z,14.91
2023-05-24T16:06:50.209Z,14.86
2023-05-24T16:07:46.468Z,14.80
2023-05-24T16:08:47.054Z,14.80
2023-05-24T16:09:46.444Z,14.84
2023-05-24T16:10:46.406Z,14.83
2023-05-24T16:11:47.595Z,14.88
2023-05-24T16:12:46.391Z,14.91
2023-05-24T16:13:46.405Z,14.96
2023-05-24T16:14:46.410Z,14.89
2023-05-24T16:15:46.382Z,14.92
2023-05-24T16:16:46.363Z,14.92
2023-05-24T16:17:46.384Z,14.95
2023-05-24T16:18:46.317Z,15.01
2023-05-24T16:19:46.415Z,15.02
2023-05-24T16:20:46.671Z,15.03
2023-05-24T16:21:46.325Z,15.09
2023-05-24T16:22:46.263Z,15.11
2023-05-24T16:23:46.395Z,15.09
2023-05-24T16:24:46.260Z,15.06
2023-05-24T16:25:46.298Z,15.02
2023-05-24T16:26:46.276Z,15.02
2023-05-24T16:27:46.390Z,15.02
2023-05-24T16:28:46.988Z,15.03
2023-05-24T16:29:46.535Z,15.02
2023-05-24T16:30:46.186Z,15.06
2023-05-24T16:31:46.234Z,15.03
2023-05-24T16:32:46.169Z,15.01
2023-05-24T16:33:46.145Z,14.98
2023-05-24T16:35:47.131Z,14.86
2023-05-24T16:36:46.092Z,14.81
2023-05-24T16:37:46.113Z,14.81
2023-05-24T16:38:46.087Z,14.81
2023-05-24T16:39:46.091Z,14.81
2023-05-24T16:40:46.058Z,14.81
2023-05-24T16:41:46.086Z,14.81
2023-05-24T16:42:46.059Z,14.77
2023-05-24T16:43:46.044Z,14.75
2023-05-24T16:44:46.023Z,14.73
2023-05-24T16:45:46.142Z,14.70
2023-05-24T16:46:46.306Z,14.69
2023-05-24T16:47:46.110Z,14.68
2023-05-24T16:48:46.004Z,14.68
2023-05-24T16:49:45.991Z,14.65
2023-05-24T16:50:46.010Z,14.65
2023-05-24T16:51:45.954Z,14.64
2023-05-24T16:52:45.921Z,14.64
2023-05-24T16:53:45.921Z,14.61
2023-05-24T16:54:45.896Z,14.57
2023-05-24T16:55:45.924Z,14.45
2023-05-24T16:56:45.855Z,14.46
2023-05-24T16:57:45.876Z,14.45
2023-05-24T16:58:45.857Z,14.39
2023-05-24T16:59:45.901Z,14.37
2023-05-24T17:00:45.824Z,14.43
2023-05-24T17:01:45.892Z,14.45
2023-05-24T17:02:45.953Z,14.51
2023-05-24T17:03:45.952Z,14.57
2023-05-24T17:04:45.851Z,14.62
2023-05-24T17:05:45.782Z,14.64
2023-05-24T17:06:45.785Z,14.70
2023-05-24T17:07:45.781Z,14.77
2023-05-24T17:08:45.717Z,14.81
2023-05-24T17:09:45.740Z,14.89
2023-05-24T17:10:45.884Z,14.95
2023-05-24T17:11:45.961Z,15.01
2023-05-24T17:12:45.822Z,15.03
2023-05-24T17:13:45.705Z,15.01
2023-05-24T17:14:45.662Z,14.95
2023-05-24T17:15:45.838Z,14.91
2023-05-24T17:16:45.691Z,14.86
2023-05-24T17:17:45.745Z,14.83
2023-05-24T17:18:45.629Z,14.78
2023-05-24T17:19:45.625Z,14.65
2023-05-24T17:20:45.981Z,14.57
2023-05-24T17:21:45.605Z,14.45
2023-05-24T17:22:45.577Z,14.37
2023-05-24T17:23:45.603Z,14.32
2023-05-24T17:24:45.534Z,14.27
2023-05-24T17:25:45.624Z,14.25
2023-05-24T17:26:45.515Z,14.20
2023-05-24T17:27:45.776Z,14.14
2023-05-24T17:28:45.546Z,14.12
2023-05-24T17:29:45.506Z,14.09
2023-05-24T17:30:45.477Z,14.04
2023-05-24T17:31:45.526Z,14.03
2023-05-24T17:32:45.485Z,14.02
2023-05-24T17:33:45.479Z,14.00
2023-05-24T17:34:45.416Z,13.92
2023-05-24T17:35:45.421Z,13.89
2023-05-24T17:36:45.411Z,13.92
2023-05-24T17:37:45.402Z,13.91
2023-05-24T17:38:45.386Z,13.96
2023-05-24T17:39:45.382Z,13.99
2023-05-24T17:40:45.410Z,14.04
2023-05-24T17:41:45.392Z,14.12
2023-05-24T17:42:45.311Z,14.21
2023-05-24T17:43:45.359Z,14.33
2023-05-24T17:44:45.291Z,14.50
2023-05-24T17:45:45.721Z,14.68
2023-05-24T17:46:45.395Z,14.83
2023-05-24T17:47:45.338Z,14.99
2023-05-24T17:48:45.352Z,15.14
2023-05-24T17:49:45.256Z,15.27
2023-05-24T17:50:45.245Z,15.39
2023-05-24T17:51:45.229Z,15.56
2023-05-24T17:52:45.274Z,15.69
2023-05-24T17:53:45.240Z,15.83
2023-05-24T17:54:45.184Z,15.94
2023-05-24T17:55:45.372Z,16.09
2023-05-24T17:56:45.147Z,16.25
2023-05-24T17:57:45.183Z,16.38
2023-05-24T17:58:47.474Z,16.49
2023-05-24T17:59:45.186Z,16.60
2023-05-24T18:00:45.113Z,16.68
2023-05-24T18:01:45.287Z,16.81
2023-05-24T18:02:45.207Z,16.94
2023-05-24T18:03:45.130Z,17.00
2023-05-24T18:04:45.082Z,16.94
2023-05-24T18:05:45.126Z,16.93
2023-05-24T18:06:45.054Z,17.01
2023-05-24T18:07:48.678Z,17.19
2023-05-24T18:08:45.019Z,17.31
2023-05-24T18:09:45.038Z,17.51
2023-05-24T18:10:45.010Z,17.63
2023-05-24T18:11:45.477Z,17.68
2023-05-24T18:12:44.982Z,17.66
2023-05-24T18:13:45.022Z,17.59
2023-05-24T18:14:44.977Z,17.59
2023-05-24T18:15:45.244Z,17.68
2023-05-24T18:16:44.968Z,17.59
2023-05-24T18:17:45.005Z,17.54
2023-05-24T18:18:44.942Z,17.64
2023-05-24T18:19:44.890Z,17.70
2023-05-24T18:20:44.977Z,17.95
2023-05-24T18:21:44.874Z,18.14
2023-05-24T18:22:44.893Z,18.27
2023-05-24T18:23:44.912Z,18.39
2023-05-24T18:24:44.914Z,18.32
2023-05-24T18:25:45.191Z,18.00
2023-05-24T18:26:47.108Z,17.52
2023-05-24T18:27:44.841Z,17.18
2023-05-24T18:28:44.855Z,16.93
2023-05-24T18:29:44.866Z,16.68
2023-05-24T18:30:44.801Z,16.41
2023-05-24T18:31:45.233Z,16.17
2023-05-24T18:33:02.843Z,15.94
2023-05-24T18:33:45.761Z,15.76